EFKS

Kuusamo

Airport
ICAO code
EFKS
Summary
ICAO Region
EUR
ICAO Territory
Location

Kuusamo,

Coordinates
65° 59' 25" N , 29° 13' 55" E
KCC
Airport GND
Aircraft Ground De/Anti Icing
Airport RE
Landing on Contaminated Runways
Airport WX
Freezing Rain
Metar
EFKS 231220Z AUTO 23013KT CAVOK 21/02 Q1021

Description

International airport serving Kuusamo in northern Finland.

Climatology

Subarctic climate (Köppen climate classification Dfc) - long, usually very cold winters, and short, cool to mild summers.

Runways

Designator Length Width Surface Rops
12/30 2500 45 ASP Yes/Yes

Airport map

Aerial View

SKYbrary Partners:

Safety knowledge contributed by: